sensor_id;sensor_type;location;lat;lon;timestamp;P1;durP1;ratioP1;P2;durP2;ratioP2
62457;SDS011;48509;52.122;5.250;2022-12-18T00:01:00;125.5;;;85.6;;
62457;SDS011;48509;52.122;5.250;2022-12-18T00:02:36;154.5;;;97.2;;
62457;SDS011;48509;52.122;5.250;2022-12-18T00:04:14;150.31;;;97.8;;
62457;SDS011;48509;52.122;5.250;2022-12-18T00:07:35;138.1;;;90.1;;
62457;SDS011;48509;52.122;5.250;2022-12-18T00:09:12;127.7;;;86.6;;
62457;SDS011;48509;52.122;5.250;2022-12-18T00:10:48;138.71;;;93.3;;
62457;SDS011;48509;52.122;5.250;2022-12-18T00:14:00;148.9;;;97.6;;
62457;SDS011;48509;52.122;5.250;2022-12-18T00:15:37;128.0;;;87.7;;
62457;SDS011;48509;52.122;5.250;2022-12-18T00:17:14;129.1;;;88.9;;
62457;SDS011;48509;52.122;5.250;2022-12-18T00:18:52;121.8;;;84.6;;
62457;SDS011;48509;52.122;5.250;2022-12-18T00:22:12;119.5;;;83.3;;
62457;SDS011;48509;52.122;5.250;2022-12-18T00:23:50;120.0;;;82.1;;
62457;SDS011;48509;52.122;5.250;2022-12-18T00:25:26;150.31;;;98.3;;
62457;SDS011;48509;52.122;5.250;2022-12-18T00:28:39;157.0;;;103.1;;
62457;SDS011;48509;52.122;5.250;2022-12-18T00:30:15;129.1;;;90.6;;
62457;SDS011;48509;52.122;5.250;2022-12-18T00:31:52;131.4;;;88.4;;
62457;SDS011;48509;52.122;5.250;2022-12-18T00:33:28;126.2;;;86.8;;
62457;SDS011;48509;52.122;5.250;2022-12-18T00:36:43;131.31;;;87.5;;
62457;SDS011;48509;52.122;5.250;2022-12-18T00:38:19;116.7;;;81.0;;
62457;SDS011;48509;52.122;5.250;2022-12-18T00:39:55;133.5;;;89.2;;
62457;SDS011;48509;52.122;5.250;2022-12-18T00:43:08;143.21;;;95.3;;
62457;SDS011;48509;52.122;5.250;2022-12-18T00:44:44;153.9;;;102.2;;
62457;SDS011;48509;52.122;5.250;2022-12-18T00:46:21;120.9;;;82.5;;
62457;SDS011;48509;52.122;5.250;2022-12-18T00:49:33;121.3;;;83.7;;
62457;SDS011;48509;52.122;5.250;2022-12-18T00:51:09;145.31;;;97.4;;
62457;SDS011;48509;52.122;5.250;2022-12-18T00:52:45;138.0;;;92.1;;
62457;SDS011;48509;52.122;5.250;2022-12-18T00:54:22;144.0;;;87.5;;
62457;SDS011;48509;52.122;5.250;2022-12-18T00:57:35;136.71;;;91.4;;
62457;SDS011;48509;52.122;5.250;2022-12-18T01:00:47;153.9;;;95.2;;
62457;SDS011;48509;52.122;5.250;2022-12-18T01:04:00;140.4;;;93.2;;
62457;SDS011;48509;52.122;5.250;2022-12-18T01:05:38;165.1;;;105.7;;
62457;SDS011;48509;52.122;5.250;2022-12-18T01:07:15;139.81;;;84.0;;
62457;SDS011;48509;52.122;5.250;2022-12-18T01:10:27;163.0;;;102.4;;
62457;SDS011;48509;52.122;5.250;2022-12-18T01:12:04;139.5;;;94.8;;
62457;SDS011;48509;52.122;5.250;2022-12-18T01:13:41;167.6;;;95.6;;
62457;SDS011;48509;52.122;5.250;2022-12-18T01:15:18;171.1;;;105.6;;
62457;SDS011;48509;52.122;5.250;2022-12-18T01:18:31;132.31;;;89.9;;
62457;SDS011;48509;52.122;5.250;2022-12-18T01:20:09;182.4;;;101.4;;
62457;SDS011;48509;52.122;5.250;2022-12-18T01:21:47;170.3;;;106.3;;
62457;SDS011;48509;52.122;5.250;2022-12-18T01:25:03;142.6;;;93.2;;
62457;SDS011;48509;52.122;5.250;2022-12-18T01:26:40;132.0;;;87.8;;
62457;SDS011;48509;52.122;5.250;2022-12-18T01:28:16;169.6;;;99.6;;
62457;SDS011;48509;52.122;5.250;2022-12-18T01:29:53;150.5;;;95.7;;
62457;SDS011;48509;52.122;5.250;2022-12-18T01:33:09;142.0;;;93.3;;
62457;SDS011;48509;52.122;5.250;2022-12-18T01:34:45;140.21;;;86.1;;
62457;SDS011;48509;52.122;5.250;2022-12-18T01:36:23;140.5;;;91.4;;
62457;SDS011;48509;52.122;5.250;2022-12-18T01:39:37;167.3;;;106.5;;
62457;SDS011;48509;52.122;5.250;2022-12-18T01:41:13;162.4;;;95.8;;
62457;SDS011;48509;52.122;5.250;2022-12-18T01:42:55;149.21;;;89.6;;
62457;SDS011;48509;52.122;5.250;2022-12-18T01:46:56;144.4;;;94.5;;
62457;SDS011;48509;52.122;5.250;2022-12-18T01:50:10;156.81;;;92.0;;
62457;SDS011;48509;52.122;5.250;2022-12-18T01:51:50;151.9;;;87.9;;
62457;SDS011;48509;52.122;5.250;2022-12-18T01:53:27;169.0;;;104.2;;
62457;SDS011;48509;52.122;5.250;2022-12-18T01:55:04;146.71;;;93.3;;
62457;SDS011;48509;52.122;5.250;2022-12-18T01:58:18;144.5;;;95.2;;
62457;SDS011;48509;52.122;5.250;2022-12-18T02:00:00;154.9;;;91.7;;
62457;SDS011;48509;52.122;5.250;2022-12-18T02:01:43;154.31;;;91.2;;
62457;SDS011;48509;52.122;5.250;2022-12-18T02:04:56;137.9;;;89.0;;
62457;SDS011;48509;52.122;5.250;2022-12-18T02:06:33;129.81;;;87.4;;
62457;SDS011;48509;52.122;5.250;2022-12-18T02:08:16;122.9;;;84.3;;
62457;SDS011;48509;52.122;5.250;2022-12-18T02:10:02;134.0;;;79.7;;
62457;SDS011;48509;52.122;5.250;2022-12-18T02:11:46;125.9;;;83.1;;
62457;SDS011;48509;52.122;5.250;2022-12-18T02:15:19;131.1;;;87.0;;
62457;SDS011;48509;52.122;5.250;2022-12-18T02:17:03;136.4;;;81.8;;
62457;SDS011;48509;52.122;5.250;2022-12-18T02:18:47;132.2;;;80.61;;
62457;SDS011;48509;52.122;5.250;2022-12-18T02:20:31;113.1;;;77.41;;
62457;SDS011;48509;52.122;5.250;2022-12-18T02:22:16;124.4;;;81.61;;
62457;SDS011;48509;52.122;5.250;2022-12-18T02:26:02;122.5;;;76.91;;
62457;SDS011;48509;52.122;5.250;2022-12-18T02:27:47;131.31;;;78.0;;
62457;SDS011;48509;52.122;5.250;2022-12-18T02:29:27;124.4;;;80.7;;
62457;SDS011;48509;52.122;5.250;2022-12-18T02:31:09;116.9;;;79.3;;
62457;SDS011;48509;52.122;5.250;2022-12-18T02:34:31;124.0;;;77.61;;
62457;SDS011;48509;52.122;5.250;2022-12-18T02:36:13;124.0;;;77.61;;
62457;SDS011;48509;52.122;5.250;2022-12-18T02:37:52;119.6;;;76.5;;
62457;SDS011;48509;52.122;5.250;2022-12-18T02:39:29;112.5;;;69.91;;
62457;SDS011;48509;52.122;5.250;2022-12-18T02:41:08;120.1;;;72.3;;
62457;SDS011;48509;52.122;5.250;2022-12-18T02:44:22;111.2;;;75.61;;
62457;SDS011;48509;52.122;5.250;2022-12-18T02:45:58;115.7;;;79.3;;
62457;SDS011;48509;52.122;5.250;2022-12-18T02:47:56;110.5;;;69.61;;
62457;SDS011;48509;52.122;5.250;2022-12-18T02:49:35;114.1;;;78.2;;
62457;SDS011;48509;52.122;5.250;2022-12-18T02:53:07;137.1;;;81.2;;
62457;SDS011;48509;52.122;5.250;2022-12-18T02:54:55;130.31;;;79.3;;
62457;SDS011;48509;52.122;5.250;2022-12-18T02:56:41;126.5;;;79.11;;
62457;SDS011;48509;52.122;5.250;2022-12-18T02:58:26;137.1;;;84.3;;
62457;SDS011;48509;52.122;5.250;2022-12-18T03:00:10;125.9;;;76.8;;
62457;SDS011;48509;52.122;5.250;2022-12-18T03:03:35;122.0;;;76.2;;
62457;SDS011;48509;52.122;5.250;2022-12-18T03:05:16;130.81;;;81.5;;
62457;SDS011;48509;52.122;5.250;2022-12-18T03:06:59;131.6;;;79.8;;
62457;SDS011;48509;52.122;5.250;2022-12-18T03:08:42;120.7;;;73.5;;
62457;SDS011;48509;52.122;5.250;2022-12-18T03:10:24;122.3;;;73.91;;
62457;SDS011;48509;52.122;5.250;2022-12-18T03:13:51;117.8;;;75.0;;
62457;SDS011;48509;52.122;5.250;2022-12-18T03:15:34;123.6;;;75.3;;
62457;SDS011;48509;52.122;5.250;2022-12-18T03:17:14;119.7;;;74.3;;
62457;SDS011;48509;52.122;5.250;2022-12-18T03:18:56;112.1;;;72.8;;
62457;SDS011;48509;52.122;5.250;2022-12-18T03:22:19;112.8;;;71.3;;
62457;SDS011;48509;52.122;5.250;2022-12-18T03:23:59;117.0;;;73.3;;
62457;SDS011;48509;52.122;5.250;2022-12-18T03:25:39;115.6;;;70.11;;
62457;SDS011;48509;52.122;5.250;2022-12-18T03:27:18;113.9;;;71.8;;
62457;SDS011;48509;52.122;5.250;2022-12-18T03:30:44;113.8;;;71.5;;
62457;SDS011;48509;52.122;5.250;2022-12-18T03:32:23;127.8;;;77.7;;
62457;SDS011;48509;52.122;5.250;2022-12-18T03:34:04;115.3;;;72.61;;
62457;SDS011;48509;52.122;5.250;2022-12-18T03:35:48;102.3;;;64.41;;
62457;SDS011;48509;52.122;5.250;2022-12-18T03:39:01;105.1;;;64.8;;
62457;SDS011;48509;52.122;5.250;2022-12-18T03:40:50;104.4;;;63.7;;
62457;SDS011;48509;52.122;5.250;2022-12-18T03:42:36;104.9;;;66.6;;
62457;SDS011;48509;52.122;5.250;2022-12-18T03:44:26;105.7;;;66.41;;
62457;SDS011;48509;52.122;5.250;2022-12-18T03:46:09;112.1;;;67.1;;
62457;SDS011;48509;52.122;5.250;2022-12-18T03:49:38;105.4;;;65.8;;
62457;SDS011;48509;52.122;5.250;2022-12-18T03:51:23;101.4;;;64.91;;
62457;SDS011;48509;52.122;5.250;2022-12-18T03:53:08;107.1;;;64.2;;
62457;SDS011;48509;52.122;5.250;2022-12-18T03:54:54;111.0;;;71.11;;
62457;SDS011;48509;52.122;5.250;2022-12-18T03:56:35;121.1;;;75.61;;
62457;SDS011;48509;52.122;5.250;2022-12-18T03:59:57;122.5;;;76.11;;
62457;SDS011;48509;52.122;5.250;2022-12-18T04:01:38;128.0;;;80.3;;
62457;SDS011;48509;52.122;5.250;2022-12-18T04:03:18;111.3;;;68.2;;
62457;SDS011;48509;52.122;5.250;2022-12-18T04:04:57;121.7;;;75.0;;
62457;SDS011;48509;52.122;5.250;2022-12-18T04:08:16;106.7;;;68.3;;
62457;SDS011;48509;52.122;5.250;2022-12-18T04:09:53;118.6;;;71.41;;
62457;SDS011;48509;52.122;5.250;2022-12-18T04:11:32;112.8;;;67.41;;
62457;SDS011;48509;52.122;5.250;2022-12-18T04:13:08;112.2;;;71.11;;
62457;SDS011;48509;52.122;5.250;2022-12-18T04:16:21;111.6;;;70.91;;
62457;SDS011;48509;52.122;5.250;2022-12-18T04:17:57;102.4;;;65.6;;
62457;SDS011;48509;52.122;5.250;2022-12-18T04:19:33;107.8;;;70.61;;
62457;SDS011;48509;52.122;5.250;2022-12-18T04:22:47;114.9;;;72.41;;
62457;SDS011;48509;52.122;5.250;2022-12-18T04:24:24;112.9;;;70.5;;
62457;SDS011;48509;52.122;5.250;2022-12-18T04:26:00;106.2;;;66.7;;
62457;SDS011;48509;52.122;5.250;2022-12-18T04:29:12;111.9;;;70.7;;
62457;SDS011;48509;52.122;5.250;2022-12-18T04:30:48;111.0;;;69.61;;
62457;SDS011;48509;52.122;5.250;2022-12-18T04:32:24;108.0;;;66.41;;
62457;SDS011;48509;52.122;5.250;2022-12-18T04:34:01;101.1;;;67.1;;
62457;SDS011;48509;52.122;5.250;2022-12-18T04:37:13;100.1;;;59.2;;
62457;SDS011;48509;52.122;5.250;2022-12-18T04:38:49;92.8;;;59.1;;
62457;SDS011;48509;52.122;5.250;2022-12-18T04:40:25;95.4;;;59.7;;
62457;SDS011;48509;52.122;5.250;2022-12-18T04:43:38;90.1;;;58.5;;
62457;SDS011;48509;52.122;5.250;2022-12-18T04:45:14;88.7;;;56.8;;
62457;SDS011;48509;52.122;5.250;2022-12-18T04:46:50;84.5;;;56.8;;
62457;SDS011;48509;52.122;5.250;2022-12-18T04:50:03;91.9;;;58.1;;
62457;SDS011;48509;52.122;5.250;2022-12-18T04:51:40;87.5;;;57.6;;
62457;SDS011;48509;52.122;5.250;2022-12-18T04:53:16;93.4;;;57.4;;
62457;SDS011;48509;52.122;5.250;2022-12-18T04:56:29;99.7;;;63.2;;
62457;SDS011;48509;52.122;5.250;2022-12-18T04:58:07;92.4;;;57.7;;
62457;SDS011;48509;52.122;5.250;2022-12-18T04:59:43;84.9;;;55.4;;
62457;SDS011;48509;52.122;5.250;2022-12-18T05:01:19;88.0;;;53.7;;
62457;SDS011;48509;52.122;5.250;2022-12-18T05:04:31;82.0;;;52.7;;
62457;SDS011;48509;52.122;5.250;2022-12-18T05:06:08;86.5;;;53.8;;
62457;SDS011;48509;52.122;5.250;2022-12-18T05:07:45;86.5;;;56.0;;
62457;SDS011;48509;52.122;5.250;2022-12-18T05:10:59;81.41;;;51.5;;
62457;SDS011;48509;52.122;5.250;2022-12-18T05:12:36;80.8;;;53.1;;
62457;SDS011;48509;52.122;5.250;2022-12-18T05:14:13;92.6;;;58.0;;
62457;SDS011;48509;52.122;5.250;2022-12-18T05:15:51;81.11;;;51.0;;
62457;SDS011;48509;52.122;5.250;2022-12-18T05:19:04;79.0;;;51.6;;
62457;SDS011;48509;52.122;5.250;2022-12-18T05:20:40;75.91;;;48.8;;
62457;SDS011;48509;52.122;5.250;2022-12-18T05:22:17;77.91;;;49.8;;
62457;SDS011;48509;52.122;5.250;2022-12-18T05:25:29;72.8;;;49.3;;
62457;SDS011;48509;52.122;5.250;2022-12-18T05:27:05;78.11;;;49.7;;
62457;SDS011;48509;52.122;5.250;2022-12-18T05:28:41;81.2;;;50.8;;
62457;SDS011;48509;52.122;5.250;2022-12-18T05:31:54;71.61;;;48.7;;
62457;SDS011;48509;52.122;5.250;2022-12-18T05:33:31;67.2;;;45.3;;
62457;SDS011;48509;52.122;5.250;2022-12-18T05:35:10;65.41;;;43.6;;
62457;SDS011;48509;52.122;5.250;2022-12-18T05:36:47;61.1;;;42.8;;
62457;SDS011;48509;52.122;5.250;2022-12-18T05:40:02;63.1;;;41.0;;
62457;SDS011;48509;52.122;5.250;2022-12-18T05:41:40;70.61;;;45.2;;
62457;SDS011;48509;52.122;5.250;2022-12-18T05:43:16;70.0;;;47.7;;
62457;SDS011;48509;52.122;5.250;2022-12-18T05:46:29;66.3;;;46.7;;
62457;SDS011;48509;52.122;5.250;2022-12-18T05:48:06;70.11;;;46.1;;
62457;SDS011;48509;52.122;5.250;2022-12-18T05:49:43;60.3;;;41.0;;
62457;SDS011;48509;52.122;5.250;2022-12-18T05:52:57;64.3;;;43.1;;
62457;SDS011;48509;52.122;5.250;2022-12-18T05:54:33;63.3;;;41.2;;
62457;SDS011;48509;52.122;5.250;2022-12-18T05:56:10;61.7;;;41.7;;
62457;SDS011;48509;52.122;5.250;2022-12-18T05:57:50;63.2;;;42.4;;
62457;SDS011;48509;52.122;5.250;2022-12-18T06:01:06;59.9;;;42.9;;
62457;SDS011;48509;52.122;5.250;2022-12-18T06:02:46;64.1;;;43.4;;
62457;SDS011;48509;52.122;5.250;2022-12-18T06:04:23;76.61;;;48.5;;
62457;SDS011;48509;52.122;5.250;2022-12-18T06:07:35;67.91;;;45.2;;
62457;SDS011;48509;52.122;5.250;2022-12-18T06:09:11;66.1;;;43.3;;
62457;SDS011;48509;52.122;5.250;2022-12-18T06:10:49;65.2;;;44.1;;
62457;SDS011;48509;52.122;5.250;2022-12-18T06:12:27;68.1;;;45.8;;
62457;SDS011;48509;52.122;5.250;2022-12-18T06:15:41;66.1;;;43.9;;
62457;SDS011;48509;52.122;5.250;2022-12-18T06:17:17;65.3;;;42.1;;
62457;SDS011;48509;52.122;5.250;2022-12-18T06:18:55;64.3;;;40.21;;
62457;SDS011;48509;52.122;5.250;2022-12-18T06:22:08;60.3;;;40.6;;
62457;SDS011;48509;52.122;5.250;2022-12-18T06:23:44;60.4;;;39.71;;
62457;SDS011;48509;52.122;5.250;2022-12-18T06:25:20;58.4;;;39.1;;
62457;SDS011;48509;52.122;5.250;2022-12-18T06:28:32;61.3;;;40.0;;
62457;SDS011;48509;52.122;5.250;2022-12-18T06:30:09;69.2;;;43.3;;
62457;SDS011;48509;52.122;5.250;2022-12-18T06:31:46;70.7;;;44.8;;
62457;SDS011;48509;52.122;5.250;2022-12-18T06:33:25;60.1;;;39.1;;
62457;SDS011;48509;52.122;5.250;2022-12-18T06:36:39;69.2;;;44.7;;
62457;SDS011;48509;52.122;5.250;2022-12-18T06:38:16;63.8;;;42.8;;
62457;SDS011;48509;52.122;5.250;2022-12-18T06:39:52;67.3;;;42.6;;
62457;SDS011;48509;52.122;5.250;2022-12-18T06:43:04;67.8;;;43.7;;
62457;SDS011;48509;52.122;5.250;2022-12-18T06:44:41;61.3;;;39.5;;
62457;SDS011;48509;52.122;5.250;2022-12-18T06:46:18;67.0;;;43.9;;
62457;SDS011;48509;52.122;5.250;2022-12-18T06:47:55;70.0;;;44.3;;
62457;SDS011;48509;52.122;5.250;2022-12-18T06:51:07;58.6;;;38.0;;
62457;SDS011;48509;52.122;5.250;2022-12-18T06:52:43;64.3;;;41.7;;
62457;SDS011;48509;52.122;5.250;2022-12-18T06:54:20;62.7;;;42.6;;
62457;SDS011;48509;52.122;5.250;2022-12-18T06:57:36;64.41;;;42.3;;
62457;SDS011;48509;52.122;5.250;2022-12-18T06:59:13;57.3;;;38.31;;
62457;SDS011;48509;52.122;5.250;2022-12-18T07:00:50;55.1;;;36.31;;
62457;SDS011;48509;52.122;5.250;2022-12-18T07:04:03;52.9;;;36.1;;
62457;SDS011;48509;52.122;5.250;2022-12-18T07:05:39;54.8;;;37.5;;
62457;SDS011;48509;52.122;5.250;2022-12-18T07:07:16;56.8;;;37.0;;
62457;SDS011;48509;52.122;5.250;2022-12-18T07:08:53;50.8;;;35.4;;
62457;SDS011;48509;52.122;5.250;2022-12-18T07:12:07;59.2;;;39.81;;
62457;SDS011;48509;52.122;5.250;2022-12-18T07:13:43;49.8;;;35.21;;
62457;SDS011;48509;52.122;5.250;2022-12-18T07:15:20;53.8;;;37.31;;
62457;SDS011;48509;52.122;5.250;2022-12-18T07:18:32;48.9;;;33.4;;
62457;SDS011;48509;52.122;5.250;2022-12-18T07:20:09;56.8;;;39.9;;
62457;SDS011;48509;52.122;5.250;2022-12-18T07:21:46;55.7;;;38.31;;
62457;SDS011;48509;52.122;5.250;2022-12-18T07:24:58;57.9;;;39.0;;
62457;SDS011;48509;52.122;5.250;2022-12-18T07:26:34;49.8;;;35.81;;
62457;SDS011;48509;52.122;5.250;2022-12-18T07:28:11;49.4;;;35.5;;
62457;SDS011;48509;52.122;5.250;2022-12-18T07:29:47;49.5;;;34.81;;
62457;SDS011;48509;52.122;5.250;2022-12-18T07:33:00;55.9;;;37.6;;
62457;SDS011;48509;52.122;5.250;2022-12-18T07:34:37;58.3;;;37.9;;
62457;SDS011;48509;52.122;5.250;2022-12-18T07:36:13;53.8;;;38.31;;
62457;SDS011;48509;52.122;5.250;2022-12-18T07:39:26;47.2;;;33.71;;
62457;SDS011;48509;52.122;5.250;2022-12-18T07:41:02;56.2;;;38.5;;
62457;SDS011;48509;52.122;5.250;2022-12-18T07:42:40;52.8;;;37.1;;
62457;SDS011;48509;52.122;5.250;2022-12-18T07:45:54;53.6;;;37.4;;
62457;SDS011;48509;52.122;5.250;2022-12-18T07:47:33;55.6;;;38.1;;
62457;SDS011;48509;52.122;5.250;2022-12-18T07:49:10;55.4;;;40.31;;
62457;SDS011;48509;52.122;5.250;2022-12-18T07:50:46;54.7;;;37.71;;
62457;SDS011;48509;52.122;5.250;2022-12-18T07:53:59;60.1;;;42.6;;
62457;SDS011;48509;52.122;5.250;2022-12-18T07:55:35;59.1;;;40.0;;
62457;SDS011;48509;52.122;5.250;2022-12-18T07:57:11;57.8;;;40.0;;
62457;SDS011;48509;52.122;5.250;2022-12-18T08:00:24;56.9;;;39.5;;
62457;SDS011;48509;52.122;5.250;2022-12-18T08:02:00;54.5;;;37.81;;
62457;SDS011;48509;52.122;5.250;2022-12-18T08:03:37;55.3;;;38.31;;
62457;SDS011;48509;52.122;5.250;2022-12-18T08:06:50;50.9;;;35.71;;
62457;SDS011;48509;52.122;5.250;2022-12-18T08:08:27;54.2;;;37.5;;
62457;SDS011;48509;52.122;5.250;2022-12-18T08:10:04;50.5;;;36.31;;
62457;SDS011;48509;52.122;5.250;2022-12-18T08:11:41;47.1;;;36.31;;
62457;SDS011;48509;52.122;5.250;2022-12-18T08:14:54;52.8;;;37.81;;
62457;SDS011;48509;52.122;5.250;2022-12-18T08:16:31;51.7;;;38.81;;
62457;SDS011;48509;52.122;5.250;2022-12-18T08:18:07;56.9;;;38.71;;
62457;SDS011;48509;52.122;5.250;2022-12-18T08:21:20;57.0;;;40.21;;
62457;SDS011;48509;52.122;5.250;2022-12-18T08:22:58;57.7;;;40.71;;
62457;SDS011;48509;52.122;5.250;2022-12-18T08:24:34;53.9;;;42.0;;
62457;SDS011;48509;52.122;5.250;2022-12-18T08:27:47;49.6;;;36.1;;
62457;SDS011;48509;52.122;5.250;2022-12-18T08:29:23;52.1;;;37.21;;
62457;SDS011;48509;52.122;5.250;2022-12-18T08:31:00;48.1;;;35.4;;
62457;SDS011;48509;52.122;5.250;2022-12-18T08:32:36;48.8;;;33.3;;
62457;SDS011;48509;52.122;5.250;2022-12-18T08:35:47;54.3;;;39.0;;
62457;SDS011;48509;52.122;5.250;2022-12-18T08:37:24;48.5;;;35.6;;
62457;SDS011;48509;52.122;5.250;2022-12-18T08:39:00;45.2;;;34.21;;
62457;SDS011;48509;52.122;5.250;2022-12-18T08:42:12;41.5;;;32.9;;
62457;SDS011;48509;52.122;5.250;2022-12-18T08:43:48;43.4;;;32.1;;
62457;SDS011;48509;52.122;5.250;2022-12-18T08:45:25;44.6;;;32.3;;
62457;SDS011;48509;52.122;5.250;2022-12-18T08:48:37;45.7;;;35.1;;
62457;SDS011;48509;52.122;5.250;2022-12-18T08:50:14;48.4;;;36.0;;
62457;SDS011;48509;52.122;5.250;2022-12-18T08:51:53;43.2;;;33.0;;
62457;SDS011;48509;52.122;5.250;2022-12-18T08:53:30;45.7;;;34.81;;
62457;SDS011;48509;52.122;5.250;2022-12-18T08:56:44;43.1;;;32.71;;
62457;SDS011;48509;52.122;5.250;2022-12-18T08:58:20;47.8;;;35.0;;
62457;SDS011;48509;52.122;5.250;2022-12-18T08:59:57;52.1;;;40.4;;
62457;SDS011;48509;52.122;5.250;2022-12-18T09:03:10;47.0;;;35.6;;
62457;SDS011;48509;52.122;5.250;2022-12-18T09:04:47;44.7;;;34.31;;
62457;SDS011;48509;52.122;5.250;2022-12-18T09:06:24;45.2;;;32.1;;
62457;SDS011;48509;52.122;5.250;2022-12-18T09:09:36;44.1;;;33.21;;
62457;SDS011;48509;52.122;5.250;2022-12-18T09:11:13;47.7;;;36.5;;
62457;SDS011;48509;52.122;5.250;2022-12-18T09:12:53;49.8;;;36.9;;
62457;SDS011;48509;52.122;5.250;2022-12-18T09:14:30;43.3;;;31.6;;
62457;SDS011;48509;52.122;5.250;2022-12-18T09:17:43;45.9;;;33.4;;
62457;SDS011;48509;52.122;5.250;2022-12-18T09:19:19;44.9;;;35.1;;
62457;SDS011;48509;52.122;5.250;2022-12-18T09:20:55;51.4;;;37.81;;
62457;SDS011;48509;52.122;5.250;2022-12-18T09:24:08;45.3;;;36.31;;
62457;SDS011;48509;52.122;5.250;2022-12-18T09:25:48;44.6;;;33.5;;
62457;SDS011;48509;52.122;5.250;2022-12-18T09:27:25;40.0;;;29.8;;
62457;SDS011;48509;52.122;5.250;2022-12-18T09:29:01;44.4;;;32.9;;
62457;SDS011;48509;52.122;5.250;2022-12-18T09:32:16;47.5;;;34.4;;
62457;SDS011;48509;52.122;5.250;2022-12-18T09:33:54;45.0;;;34.4;;
62457;SDS011;48509;52.122;5.250;2022-12-18T09:35:30;46.1;;;33.4;;
62457;SDS011;48509;52.122;5.250;2022-12-18T09:38:43;39.31;;;31.9;;
62457;SDS011;48509;52.122;5.250;2022-12-18T09:40:21;47.6;;;34.71;;
62457;SDS011;48509;52.122;5.250;2022-12-18T09:42:01;43.9;;;32.8;;
62457;SDS011;48509;52.122;5.250;2022-12-18T09:43:40;40.31;;;32.8;;
62457;SDS011;48509;52.122;5.250;2022-12-18T09:47:01;42.7;;;30.5;;
62457;SDS011;48509;52.122;5.250;2022-12-18T09:48:46;42.1;;;31.0;;
62457;SDS011;48509;52.122;5.250;2022-12-18T09:50:27;38.5;;;30.4;;
62457;SDS011;48509;52.122;5.250;2022-12-18T09:52:09;40.81;;;29.9;;
62457;SDS011;48509;52.122;5.250;2022-12-18T09:55:34;37.71;;;30.4;;
62457;SDS011;48509;52.122;5.250;2022-12-18T09:57:14;37.6;;;30.2;;
62457;SDS011;48509;52.122;5.250;2022-12-18T09:58:55;38.1;;;31.3;;
62457;SDS011;48509;52.122;5.250;2022-12-18T10:00:34;40.31;;;31.0;;
62457;SDS011;48509;52.122;5.250;2022-12-18T10:03:52;40.6;;;30.6;;
62457;SDS011;48509;52.122;5.250;2022-12-18T10:05:32;40.31;;;31.8;;
62457;SDS011;48509;52.122;5.250;2022-12-18T10:07:23;40.9;;;32.9;;
62457;SDS011;48509;52.122;5.250;2022-12-18T10:09:11;40.81;;;32.5;;
62457;SDS011;48509;52.122;5.250;2022-12-18T10:10:57;46.5;;;36.1;;
62457;SDS011;48509;52.122;5.250;2022-12-18T10:14:34;38.31;;;30.5;;
62457;SDS011;48509;52.122;5.250;2022-12-18T10:16:17;39.81;;;29.7;;
62457;SDS011;48509;52.122;5.250;2022-12-18T10:18:03;40.9;;;34.0;;
62457;SDS011;48509;52.122;5.250;2022-12-18T10:19:58;39.6;;;32.21;;
62457;SDS011;48509;52.122;5.250;2022-12-18T10:21:39;40.81;;;31.2;;
62457;SDS011;48509;52.122;5.250;2022-12-18T10:23:25;42.8;;;33.4;;
62457;SDS011;48509;52.122;5.250;2022-12-18T10:26:56;37.71;;;30.2;;
62457;SDS011;48509;52.122;5.250;2022-12-18T10:28:45;38.31;;;30.1;;
62457;SDS011;48509;52.122;5.250;2022-12-18T10:30:23;39.4;;;30.5;;
62457;SDS011;48509;52.122;5.250;2022-12-18T10:32:01;36.4;;;29.7;;
62457;SDS011;48509;52.122;5.250;2022-12-18T10:35:15;41.2;;;31.0;;
62457;SDS011;48509;52.122;5.250;2022-12-18T10:36:55;37.81;;;30.0;;
62457;SDS011;48509;52.122;5.250;2022-12-18T10:38:32;35.6;;;28.1;;
62457;SDS011;48509;52.122;5.250;2022-12-18T10:40:10;36.81;;;29.8;;
62457;SDS011;48509;52.122;5.250;2022-12-18T10:43:26;37.0;;;30.1;;
62457;SDS011;48509;52.122;5.250;2022-12-18T10:45:11;38.9;;;29.3;;
62457;SDS011;48509;52.122;5.250;2022-12-18T10:46:50;42.4;;;30.8;;
62457;SDS011;48509;52.122;5.250;2022-12-18T10:48:30;37.5;;;29.4;;
62457;SDS011;48509;52.122;5.250;2022-12-18T10:52:04;37.9;;;28.6;;
62457;SDS011;48509;52.122;5.250;2022-12-18T10:53:44;35.1;;;28.0;;
62457;SDS011;48509;52.122;5.250;2022-12-18T10:55:31;37.5;;;27.2;;
62457;SDS011;48509;52.122;5.250;2022-12-18T10:57:19;35.9;;;28.4;;
62457;SDS011;48509;52.122;5.250;2022-12-18T10:59:07;37.6;;;29.8;;
62457;SDS011;48509;52.122;5.250;2022-12-18T11:02:39;35.4;;;28.7;;
62457;SDS011;48509;52.122;5.250;2022-12-18T11:04:16;35.6;;;27.9;;
62457;SDS011;48509;52.122;5.250;2022-12-18T11:06:01;34.31;;;27.2;;
62457;SDS011;48509;52.122;5.250;2022-12-18T11:07:46;37.1;;;30.1;;
62457;SDS011;48509;52.122;5.250;2022-12-18T11:09:24;34.1;;;28.0;;
62457;SDS011;48509;52.122;5.250;2022-12-18T11:12:43;35.0;;;28.5;;
62457;SDS011;48509;52.122;5.250;2022-12-18T11:14:21;33.4;;;26.2;;
62457;SDS011;48509;52.122;5.250;2022-12-18T11:16:00;31.7;;;25.4;;
62457;SDS011;48509;52.122;5.250;2022-12-18T11:19:17;33.9;;;26.9;;
62457;SDS011;48509;52.122;5.250;2022-12-18T11:21:00;31.9;;;24.7;;
62457;SDS011;48509;52.122;5.250;2022-12-18T11:22:44;32.9;;;26.0;;
62457;SDS011;48509;52.122;5.250;2022-12-18T11:24:32;33.4;;;26.9;;
62457;SDS011;48509;52.122;5.250;2022-12-18T11:26:12;33.21;;;25.2;;
62457;SDS011;48509;52.122;5.250;2022-12-18T11:29:34;32.5;;;25.3;;
62457;SDS011;48509;52.122;5.250;2022-12-18T11:31:21;34.31;;;26.3;;
62457;SDS011;48509;52.122;5.250;2022-12-18T11:33:03;31.3;;;24.4;;
62457;SDS011;48509;52.122;5.250;2022-12-18T11:34:42;31.9;;;24.9;;
62457;SDS011;48509;52.122;5.250;2022-12-18T11:38:02;29.8;;;23.3;;
62457;SDS011;48509;52.122;5.250;2022-12-18T11:39:49;33.1;;;25.1;;
62457;SDS011;48509;52.122;5.250;2022-12-18T11:41:32;31.3;;;25.7;;
62457;SDS011;48509;52.122;5.250;2022-12-18T11:43:17;33.71;;;25.7;;
62457;SDS011;48509;52.122;5.250;2022-12-18T11:45:02;32.8;;;25.2;;
62457;SDS011;48509;52.122;5.250;2022-12-18T11:48:38;30.7;;;24.6;;
62457;SDS011;48509;52.122;5.250;2022-12-18T11:50:24;31.3;;;25.2;;
62457;SDS011;48509;52.122;5.250;2022-12-18T11:52:04;31.6;;;25.1;;
62457;SDS011;48509;52.122;5.250;2022-12-18T11:53:51;29.2;;;23.7;;
62457;SDS011;48509;52.122;5.250;2022-12-18T11:55:30;29.6;;;24.1;;
62457;SDS011;48509;52.122;5.250;2022-12-18T11:59:13;32.0;;;24.3;;
62457;SDS011;48509;52.122;5.250;2022-12-18T12:01:02;29.6;;;24.4;;
62457;SDS011;48509;52.122;5.250;2022-12-18T12:06:36;34.1;;;24.9;;
62457;SDS011;48509;52.122;5.250;2022-12-18T12:08:24;35.71;;;24.7;;
62457;SDS011;48509;52.122;5.250;2022-12-18T12:12:10;34.81;;;25.3;;
62457;SDS011;48509;52.122;5.250;2022-12-18T12:14:07;32.4;;;23.6;;
62457;SDS011;48509;52.122;5.250;2022-12-18T12:16:11;33.8;;;24.9;;
62457;SDS011;48509;52.122;5.250;2022-12-18T12:17:54;34.0;;;23.9;;
62457;SDS011;48509;52.122;5.250;2022-12-18T12:19:43;33.4;;;24.2;;
62457;SDS011;48509;52.122;5.250;2022-12-18T12:21:28;35.21;;;24.5;;
62457;SDS011;48509;52.122;5.250;2022-12-18T12:23:17;32.21;;;23.8;;
62457;SDS011;48509;52.122;5.250;2022-12-18T12:25:15;34.71;;;24.2;;
62457;SDS011;48509;52.122;5.250;2022-12-18T12:27:00;33.5;;;23.8;;
62457;SDS011;48509;52.122;5.250;2022-12-18T12:30:43;32.71;;;23.8;;
62457;SDS011;48509;52.122;5.250;2022-12-18T12:32:37;32.0;;;24.5;;
62457;SDS011;48509;52.122;5.250;2022-12-18T12:34:26;31.5;;;23.4;;
62457;SDS011;48509;52.122;5.250;2022-12-18T12:36:11;31.9;;;24.0;;